Time;durP1;ratioP1;P1;durP2;ratioP2;P2;SDS_P1;SDS_P2;PMS_P1;PMS_P2;Temp;Humidity;BMP_temperature;BMP_pressure;BME280_temperature;BME280_humidity;BME280_pressure;Samples;Min_cycle;Max_cycle;Signal;HPM_P1;HPM_P2
2023/09/01 00:01:32;;;;;;;;;;;;;;;16.89;55.10;100594.47;5076073;28;1002;-64
2023/09/01 00:04:30;;;;;;;;;;;;;;;16.87;54.82;100599.38;5045137;28;1194;-65
2023/09/01 00:06:56;;;;;;;;;;;;;;;16.86;54.66;100595.00;5060283;28;1071;-64
2023/09/01 00:09:22;;;;;;;;;;;;;;;16.84;54.20;100594.44;5064925;28;1130;-64
2023/09/01 00:11:47;;;;;;;;;;;;;;;16.81;54.30;100597.75;5067438;28;1190;-64
2023/09/01 00:14:13;;;;;;;;;;;;;;;16.79;54.16;100602.69;5076191;28;1434;-64
2023/09/01 00:16:38;;;;;;;;;;;;;;;16.82;53.93;100596.66;5075718;28;1996;-64
2023/09/01 00:19:04;;;;;;;;;;;;;;;16.74;53.98;100598.84;5064810;28;1201;-64
2023/09/01 00:21:30;;;;;;;;;;;;;;;16.76;53.85;100598.59;5055840;28;1031;-64
2023/09/01 00:23:55;;;;;;;;;;;;;;;16.74;53.71;100600.78;5049597;28;920;-65
2023/09/01 00:26:21;;;;;;;;;;;;;;;16.69;53.86;100598.91;5071645;28;1047;-65
2023/09/01 00:28:47;;;;;;;;;;;;;;;16.71;53.80;100590.38;5065617;28;1126;-64
2023/09/01 00:31:15;;;;;;;;;;;;;;;16.62;53.99;100595.63;5054098;28;1210;-65
2023/09/01 00:33:41;;;;;;;;;;;;;;;16.71;53.52;100596.69;5066520;28;1103;-66
2023/09/01 00:36:06;;;;;;;;;;;;;;;16.70;53.68;100600.50;5070860;28;1918;-66
2023/09/01 00:38:32;;;;;;;;;;;;;;;16.69;53.50;100596.16;5064590;28;1214;-67
2023/09/01 00:40:57;;;;;;;;;;;;;;;16.64;53.76;100589.84;5055865;28;1028;-65
2023/09/01 00:43:23;;;;;;;;;;;;;;;16.65;53.56;100594.22;5055785;28;1023;-64
2023/09/01 00:45:49;;;;;;;;;;;;;;;16.63;53.43;100594.50;5053798;28;1754;-64
2023/09/01 00:48:14;;;;;;;;;;;;;;;16.60;53.63;100595.06;5054677;28;941;-64
2023/09/01 00:50:41;;;;;;;;;;;;;;;16.59;53.61;100599.75;5061466;28;1142;-64
2023/09/01 00:53:07;;;;;;;;;;;;;;;16.60;53.65;100603.28;5061211;28;1247;-64
2023/09/01 00:55:33;;;;;;;;;;;;;;;16.62;53.48;100606.59;5066159;28;1945;-64
2023/09/01 00:58:02;;;;;;;;;;;;;;;16.58;53.52;100597.28;5061162;28;1071;-64
2023/09/01 01:00:28;;;;;;;;;;;;;;;16.61;53.38;100602.19;5074887;28;1095;-64
2023/09/01 01:02:54;;;;;;;;;;;;;;;16.58;53.49;100605.50;5061351;28;1373;-64
2023/09/01 01:05:23;;;;;;;;;;;;;;;16.53;53.51;100605.50;5043101;28;1190;-64
2023/09/01 01:07:51;;;;;;;;;;;;;;;16.57;53.54;100601.91;5041196;28;1182;-63
2023/09/01 01:10:22;;;;;;;;;;;;;;;16.56;53.54;100602.19;5024477;28;1143;-63
2023/09/01 01:12:50;;;;;;;;;;;;;;;16.54;53.66;100598.94;5040602;28;906;-63
2023/09/01 01:15:16;;;;;;;;;;;;;;;16.56;53.62;100599.47;5058797;28;1906;-64
2023/09/01 01:17:44;;;;;;;;;;;;;;;17.31;54.99;100595.13;5041040;28;1158;-66
2023/09/01 01:20:16;;;;;;;;;;;;;;;17.46;55.44;100611.53;5071547;28;1184;-66
2023/09/01 01:23:02;;;;;;;;;;;;;;;17.17;55.07;100608.66;5072351;28;1055;-65
2023/09/01 01:25:28;;;;;;;;;;;;;;;17.03;54.74;100605.69;5041418;28;1557;-65
2023/09/01 01:27:55;;;;;;;;;;;;;;;16.93;54.62;100609.28;5074327;28;1126;-66
2023/09/01 01:30:20;;;;;;;;;;;;;;;16.90;54.37;100604.34;5040211;28;1163;-65
2023/09/01 01:32:46;;;;;;;;;;;;;;;16.87;54.16;100610.34;5071974;28;1118;-64
2023/09/01 01:35:20;;;;;;;;;;;;;;;16.82;54.23;100613.13;5068326;28;1979;-65
2023/09/01 01:37:52;;;;;;;;;;;;;;;16.81;54.00;100616.97;5056345;28;1142;-65
2023/09/01 01:40:18;;;;;;;;;;;;;;;16.76;54.08;100620.56;5052305;28;1083;-66
2023/09/01 01:42:46;;;;;;;;;;;;;;;16.72;54.04;100617.53;5042186;28;1067;-65
2023/09/01 01:45:11;;;;;;;;;;;;;;;16.75;53.79;100618.91;5052827;28;1068;-65
2023/09/01 01:47:37;;;;;;;;;;;;;;;16.70;53.76;100625.22;5064849;28;1279;-65
2023/09/01 01:50:03;;;;;;;;;;;;;;;16.71;53.64;100628.81;5060271;28;1136;-65
2023/09/01 01:52:28;;;;;;;;;;;;;;;16.72;53.57;100630.47;5072497;28;1054;-65
2023/09/01 01:54:54;;;;;;;;;;;;;;;16.69;53.73;100631.84;5070488;28;1055;-66
2023/09/01 01:57:19;;;;;;;;;;;;;;;16.68;53.53;100635.69;5058958;28;2036;-67
2023/09/01 01:59:45;;;;;;;;;;;;;;;16.67;53.67;100631.28;5047467;28;1529;-65
2023/09/01 02:02:11;;;;;;;;;;;;;;;16.63;53.62;100626.63;5058967;28;1210;-65
2023/09/01 02:04:37;;;;;;;;;;;;;;;16.62;53.51;100624.97;5060139;28;1226;-65
2023/09/01 02:07:05;;;;;;;;;;;;;;;16.55;53.99;100623.34;5077705;28;1170;-65
2023/09/01 02:09:31;;;;;;;;;;;;;;;16.64;53.42;100640.06;5078085;28;1185;-64
2023/09/01 02:11:57;;;;;;;;;;;;;;;16.56;53.50;100635.16;5071902;28;1091;-64
2023/09/01 02:14:22;;;;;;;;;;;;;;;16.56;53.65;100643.38;5057737;28;984;-64
2023/09/01 02:16:49;;;;;;;;;;;;;;;16.57;53.77;100642.28;5043224;28;1914;-67
2023/09/01 02:19:15;;;;;;;;;;;;;;;16.63;53.41;100641.16;5059694;28;1103;-65
2023/09/01 02:21:40;;;;;;;;;;;;;;;16.54;53.65;100640.09;5070602;28;1062;-64
2023/09/01 02:24:06;;;;;;;;;;;;;;;16.58;53.32;100652.19;5070576;28;1098;-64
2023/09/01 02:26:32;;;;;;;;;;;;;;;16.58;53.61;100657.66;5071147;28;1301;-64
2023/09/01 02:28:57;;;;;;;;;;;;;;;16.52;53.70;100659.59;5058563;28;1115;-64
2023/09/01 02:31:24;;;;;;;;;;;;;;;16.54;53.51;100653.81;5057711;28;1201;-64
2023/09/01 02:33:50;;;;;;;;;;;;;;;16.72;54.16;100657.91;5077497;28;1027;-64
2023/09/01 02:36:24;;;;;;;;;;;;;;;17.79;55.03;100664.13;5065339;28;1910;-65
2023/09/01 02:38:51;;;;;;;;;;;;;;;17.26;55.57;100656.41;5077434;28;1035;-64
2023/09/01 02:41:16;;;;;;;;;;;;;;;17.12;55.24;100664.41;5057005;28;1036;-64
2023/09/01 02:43:42;;;;;;;;;;;;;;;16.95;54.99;100661.19;5056962;28;1146;-64
2023/09/01 02:46:08;;;;;;;;;;;;;;;16.95;54.45;100662.00;5057122;28;1115;-64
2023/09/01 02:48:33;;;;;;;;;;;;;;;16.91;54.47;100663.66;5064930;28;1167;-65
2023/09/01 02:50:59;;;;;;;;;;;;;;;16.85;54.45;100670.25;5070753;28;1160;-63
2023/09/01 02:53:24;;;;;;;;;;;;;;;16.87;53.90;100674.38;5069794;28;1173;-63
2023/09/01 02:55:50;;;;;;;;;;;;;;;16.82;54.02;100684.53;5056971;28;1906;-65
2023/09/01 02:58:16;;;;;;;;;;;;;;;16.75;54.27;100687.56;5057001;28;1023;-63
2023/09/01 03:00:44;;;;;;;;;;;;;;;16.76;53.76;100686.47;5040407;28;1136;-65
2023/09/01 03:03:10;;;;;;;;;;;;;;;16.72;53.93;100688.94;5038988;28;1131;-66
2023/09/01 03:05:36;;;;;;;;;;;;;;;16.69;54.11;100680.41;5039009;28;1264;-63
2023/09/01 03:08:01;;;;;;;;;;;;;;;16.67;53.69;100677.94;5051847;28;1052;-63
2023/09/01 03:10:28;;;;;;;;;;;;;;;16.72;53.87;100693.63;5038985;28;1197;-64
2023/09/01 03:12:53;;;;;;;;;;;;;;;16.67;53.62;100699.09;5047161;28;1206;-63
2023/09/01 03:15:19;;;;;;;;;;;;;;;16.61;54.02;100695.53;5038880;28;1906;-56
2023/09/01 03:17:45;;;;;;;;;;;;;;;16.61;53.95;100695.53;5069632;28;1141;-56
2023/09/01 03:20:12;;;;;;;;;;;;;;;16.64;53.87;100707.91;5038334;28;1319;-57
2023/09/01 03:22:37;;;;;;;;;;;;;;;16.64;53.34;100699.66;5056251;28;1075;-58
2023/09/01 03:25:05;;;;;;;;;;;;;;;16.62;53.47;100704.59;5052484;28;1072;-56
2023/09/01 03:27:31;;;;;;;;;;;;;;;16.65;53.51;100707.63;5050239;28;1145;-56
2023/09/01 03:29:57;;;;;;;;;;;;;;;16.61;53.54;100706.53;5062661;28;1352;-54
2023/09/01 03:32:29;;;;;;;;;;;;;;;16.54;53.69;100703.22;5044603;28;1160;-54
2023/09/01 03:34:55;;;;;;;;;;;;;;;16.55;53.74;100702.97;5051166;28;1231;-56
2023/09/01 03:37:22;;;;;;;;;;;;;;;16.55;53.54;100696.63;5049541;28;1882;-55
2023/09/01 03:39:48;;;;;;;;;;;;;;;16.54;53.67;100704.03;5050882;28;1285;-53
2023/09/01 03:42:13;;;;;;;;;;;;;;;16.54;53.48;100697.75;5069284;28;1052;-53
2023/09/01 03:44:39;;;;;;;;;;;;;;;16.56;53.64;100698.28;5063516;28;1035;-54
2023/09/01 03:47:05;;;;;;;;;;;;;;;17.77;56.72;100696.59;5058123;28;1129;-56
2023/09/01 03:49:30;;;;;;;;;;;;;;;17.34;56.45;100713.53;5075850;28;924;-56
2023/09/01 03:51:56;;;;;;;;;;;;;;;17.08;56.02;100708.13;5057468;28;1260;-59
2023/09/01 03:54:21;;;;;;;;;;;;;;;17.04;55.62;100725.44;5037590;28;1023;-58
2023/09/01 03:56:47;;;;;;;;;;;;;;;16.91;55.07;100721.34;5069550;28;1941;-57
2023/09/01 03:59:12;;;;;;;;;;;;;;;16.86;54.98;100721.34;5037783;28;1206;-56
2023/09/01 04:01:38;;;;;;;;;;;;;;;16.84;54.50;100737.25;5050025;28;1163;-56
2023/09/01 04:04:06;;;;;;;;;;;;;;;16.85;54.25;100736.16;5069641;28;1016;-56
2023/09/01 04:06:32;;;;;;;;;;;;;;;16.82;54.05;100744.97;5055678;28;1162;-56
2023/09/01 04:08:57;;;;;;;;;;;;;;;16.71;54.41;100744.13;5058044;28;1360;-58
2023/09/01 04:11:23;;;;;;;;;;;;;;;16.70;54.28;100748.78;5057830;28;1324;-56
2023/09/01 04:13:49;;;;;;;;;;;;;;;16.73;54.06;100748.25;5068535;28;2478;-56
2023/09/01 04:16:14;;;;;;;;;;;;;;;16.68;54.25;100753.75;5057009;28;2098;-57
2023/09/01 04:18:40;;;;;;;;;;;;;;;16.69;54.05;100743.56;5058336;28;2231;-57
2023/09/01 04:21:06;;;;;;;;;;;;;;;16.65;53.96;100745.22;5048386;28;2217;-55
2023/09/01 04:23:39;;;;;;;;;;;;;;;16.56;54.22;100743.03;5078993;28;2231;-54
2023/09/01 04:26:05;;;;;;;;;;;;;;;16.62;53.99;100743.03;5052243;28;2005;-58
2023/09/01 04:28:31;;;;;;;;;;;;;;;16.61;54.00;100755.94;5056743;28;1904;-57
2023/09/01 04:31:00;;;;;;;;;;;;;;;16.64;54.02;100758.13;5045460;28;1111;-56
2023/09/01 04:33:26;;;;;;;;;;;;;;;16.57;54.12;100771.31;5044912;28;1331;-56
2023/09/01 04:35:59;;;;;;;;;;;;;;;16.56;54.05;100775.97;5059549;28;1901;-55
2023/09/01 04:38:24;;;;;;;;;;;;;;;16.54;53.99;100771.84;5075518;28;868;-57
2023/09/01 04:40:56;;;;;;;;;;;;;;;16.47;54.00;100779.53;5061096;28;1210;-58
2023/09/01 04:43:25;;;;;;;;;;;;;;;16.76;55.24;100783.38;5058983;28;1071;-59
2023/09/01 04:45:51;;;;;;;;;;;;;;;17.02;54.35;100777.09;5042611;28;1221;-58
2023/09/01 04:48:17;;;;;;;;;;;;;;;16.52;53.43;100779.53;5060690;28;1123;-55
2023/09/01 04:50:42;;;;;;;;;;;;;;;16.48;51.91;100786.66;5055971;28;1288;-56
2023/09/01 04:53:09;;;;;;;;;;;;;;;16.39;51.00;100784.44;5049779;28;1172;-56
2023/09/01 04:55:34;;;;;;;;;;;;;;;16.42;50.03;100786.66;5045330;28;1909;-56
2023/09/01 04:58:00;;;;;;;;;;;;;;;16.84;52.49;100792.19;5040616;28;2649;-56
2023/09/01 05:00:26;;;;;;;;;;;;;;;16.64;51.15;100796.56;5065886;28;996;-55
2023/09/01 05:02:51;;;;;;;;;;;;;;;16.57;50.15;100804.25;5057342;28;1524;-59
2023/09/01 05:05:17;;;;;;;;;;;;;;;16.89;50.58;100797.72;5048755;28;1194;-57
2023/09/01 05:07:44;;;;;;;;;;;;;;;17.45;52.35;100797.63;5046785;28;1629;-57
2023/09/01 05:10:09;;;;;;;;;;;;;;;17.03;51.39;100806.22;5078791;28;1121;-56
2023/09/01 05:12:35;;;;;;;;;;;;;;;16.85;50.30;100815.81;5065205;28;1079;-55
2023/09/01 05:15:01;;;;;;;;;;;;;;;16.86;49.36;100806.47;5078135;28;895;-56
2023/09/01 05:17:27;;;;;;;;;;;;;;;16.85;48.39;100811.13;5064838;28;1909;-58
2023/09/01 05:19:53;;;;;;;;;;;;;;;17.36;49.84;100814.94;5060656;28;1217;-58
2023/09/01 05:22:18;;;;;;;;;;;;;;;17.28;50.97;100811.66;5060077;28;1108;-57
2023/09/01 05:24:44;;;;;;;;;;;;;;;17.12;50.04;100809.22;5070239;28;1089;-56
2023/09/01 05:27:10;;;;;;;;;;;;;;;17.03;49.22;100812.53;5055631;28;1883;-54
2023/09/01 05:29:35;;;;;;;;;;;;;;;16.97;48.85;100813.63;5040364;28;1217;-56
2023/09/01 05:32:03;;;;;;;;;;;;;;;17.00;48.36;100824.06;5041423;28;1111;-55
2023/09/01 05:34:29;;;;;;;;;;;;;;;16.96;48.28;100811.97;5051101;28;2062;-55
2023/09/01 05:36:56;;;;;;;;;;;;;;;16.96;47.75;100811.97;5053459;28;1982;-58
2023/09/01 05:39:22;;;;;;;;;;;;;;;16.95;47.56;100804.03;5077263;28;1121;-57
2023/09/01 05:41:48;;;;;;;;;;;;;;;16.96;46.86;100806.50;5076664;28;1102;-56
2023/09/01 05:44:14;;;;;;;;;;;;;;;17.41;48.31;100806.72;5065765;28;1039;-58
2023/09/01 05:46:40;;;;;;;;;;;;;;;17.39;49.34;100804.25;5046736;28;1174;-60
2023/09/01 05:49:05;;;;;;;;;;;;;;;17.18;48.80;100802.59;5059563;28;1263;-60
2023/09/01 05:51:31;;;;;;;;;;;;;;;17.10;47.98;100793.84;5056471;28;1221;-58
2023/09/01 05:53:56;;;;;;;;;;;;;;;17.05;47.68;100793.00;5058047;28;1138;-59
2023/09/01 05:56:22;;;;;;;;;;;;;;;17.10;47.26;100790.28;5071196;28;1897;-56
2023/09/01 05:58:48;;;;;;;;;;;;;;;17.08;46.95;100798.78;5064633;28;2606;-61
2023/09/01 06:01:13;;;;;;;;;;;;;;;17.08;46.63;100793.31;5077390;28;1004;-57
2023/09/01 06:03:39;;;;;;;;;;;;;;;17.01;46.88;100787.28;5070100;28;1051;-57
2023/09/01 06:06:06;;;;;;;;;;;;;;;16.99;46.79;100794.13;5058351;28;1123;-57
2023/09/01 06:08:32;;;;;;;;;;;;;;;17.09;46.53;100800.41;5069756;28;1178;-57
2023/09/01 06:11:04;;;;;;;;;;;;;;;17.01;46.52;100806.50;5057168;28;1088;-58
2023/09/01 06:13:29;;;;;;;;;;;;;;;16.92;46.78;100802.66;5059946;28;1079;-58
2023/09/01 06:15:55;;;;;;;;;;;;;;;16.99;46.37;100803.19;5076862;28;1905;-58
2023/09/01 06:18:21;;;;;;;;;;;;;;;16.99;46.55;100816.91;5068820;28;1035;-58
2023/09/01 06:20:46;;;;;;;;;;;;;;;16.96;46.45;100819.38;5059078;28;1183;-58
2023/09/01 06:23:12;;;;;;;;;;;;;;;16.95;46.44;100821.31;5068442;28;1094;-60
2023/09/01 06:25:37;;;;;;;;;;;;;;;16.95;46.24;100821.31;5071258;28;1118;-58
2023/09/01 06:28:03;;;;;;;;;;;;;;;16.99;46.43;100827.91;5077308;28;2515;-59
2023/09/01 06:30:29;;;;;;;;;;;;;;;16.89;46.48;100816.94;5061948;28;1035;-56
2023/09/01 06:32:54;;;;;;;;;;;;;;;16.96;46.33;100822.97;5056845;28;1031;-55
2023/09/01 06:35:20;;;;;;;;;;;;;;;16.92;46.32;100814.44;5056424;28;1901;-56
2023/09/01 06:37:45;;;;;;;;;;;;;;;16.98;46.25;100825.44;5064729;28;1008;-54
2023/09/01 06:40:11;;;;;;;;;;;;;;;16.96;46.25;100817.47;5075976;28;991;-56
2023/09/01 06:42:37;;;;;;;;;;;;;;;16.99;46.17;100816.91;5067873;28;1166;-57
2023/09/01 06:45:03;;;;;;;;;;;;;;;16.92;46.22;100824.63;5057952;28;1169;-57
2023/09/01 06:47:29;;;;;;;;;;;;;;;16.90;46.12;100826.81;5069020;28;1011;-56
2023/09/01 06:49:54;;;;;;;;;;;;;;;16.95;46.26;100831.50;5060050;28;1035;-57
2023/09/01 06:52:20;;;;;;;;;;;;;;;16.98;46.18;100830.94;5076248;28;1024;-58
2023/09/01 06:54:45;;;;;;;;;;;;;;;17.69;46.96;100835.50;5071966;28;1365;-58
2023/09/01 06:57:11;;;;;;;;;;;;;;;17.36;48.24;100837.78;5061097;28;1955;-58
2023/09/01 06:59:36;;;;;;;;;;;;;;;17.22;47.95;100833.94;5056343;28;1055;-58
2023/09/01 07:02:02;;;;;;;;;;;;;;;17.91;48.91;100837.13;5060019;28;1084;-58
2023/09/01 07:04:28;;;;;;;;;;;;;;;17.70;49.44;100839.91;5074747;28;1102;-58
2023/09/01 07:06:53;;;;;;;;;;;;;;;17.53;49.20;100834.72;5056733;28;1090;-55
2023/09/01 07:09:19;;;;;;;;;;;;;;;17.48;48.74;100840.22;5070825;28;1096;-57
2023/09/01 07:11:44;;;;;;;;;;;;;;;17.45;48.69;100836.09;5076302;28;1097;-57
2023/09/01 07:14:10;;;;;;;;;;;;;;;17.50;48.55;100842.69;5066012;28;1039;-58
2023/09/01 07:16:36;;;;;;;;;;;;;;;17.46;48.53;100847.94;5068370;28;1902;-58
2023/09/01 07:19:01;;;;;;;;;;;;;;;17.47;48.48;100843.25;5070030;28;1138;-55
2023/09/01 07:21:27;;;;;;;;;;;;;;;17.49;48.30;100843.78;5076194;28;1039;-56
2023/09/01 07:23:52;;;;;;;;;;;;;;;17.75;48.94;100852.81;5062672;28;1148;-57
2023/09/01 07:26:18;;;;;;;;;;;;;;;17.95;50.23;100850.03;5075598;28;1043;-57
2023/09/01 07:28:43;;;;;;;;;;;;;;;17.77;49.96;100854.16;5059686;28;2514;-57
2023/09/01 07:31:10;;;;;;;;;;;;;;;17.75;49.42;100847.31;5063413;28;1020;-56
2023/09/01 07:33:36;;;;;;;;;;;;;;;17.69;48.88;100853.94;5075008;28;999;-56
2023/09/01 07:36:01;;;;;;;;;;;;;;;17.68;48.86;100855.03;5062857;28;1971;-56
2023/09/01 07:38:27;;;;;;;;;;;;;;;17.72;48.25;100862.44;5067093;28;1369;-56
2023/09/01 07:40:52;;;;;;;;;;;;;;;17.61;48.06;100871.81;5076031;28;1126;-57
2023/09/01 07:43:18;;;;;;;;;;;;;;;17.72;47.32;100859.69;5075613;28;1065;-57
2023/09/01 07:45:43;;;;;;;;;;;;;;;17.60;47.24;100867.44;5062560;28;1023;-56
2023/09/01 07:48:09;;;;;;;;;;;;;;;17.57;47.03;100863.31;5062632;28;1079;-57
2023/09/01 07:50:35;;;;;;;;;;;;;;;17.57;46.78;100865.22;5060794;28;1090;-57
2023/09/01 07:53:00;;;;;;;;;;;;;;;17.61;46.54;100867.16;5075189;28;1079;-56
2023/09/01 07:55:26;;;;;;;;;;;;;;;17.54;46.53;100874.03;5061613;28;1969;-56
2023/09/01 07:57:52;;;;;;;;;;;;;;;17.52;46.61;100865.25;5062661;28;2440;-55
2023/09/01 08:00:17;;;;;;;;;;;;;;;17.52;46.57;100870.75;5055702;28;1215;-55
2023/09/01 08:02:43;;;;;;;;;;;;;;;17.57;46.33;100865.22;5060626;28;1138;-55
2023/09/01 08:05:09;;;;;;;;;;;;;;;17.50;46.45;100872.94;5062190;28;1107;-56
2023/09/01 08:07:35;;;;;;;;;;;;;;;17.45;46.55;100873.78;5061928;28;1019;-54
2023/09/01 08:10:00;;;;;;;;;;;;;;;17.52;46.18;100863.31;5068807;28;1032;-54
2023/09/01 08:12:26;;;;;;;;;;;;;;;17.53;45.98;100864.13;5055624;28;1042;-55
2023/09/01 08:14:52;;;;;;;;;;;;;;;17.85;47.17;100866.53;5055551;28;1087;-55
2023/09/01 08:17:17;;;;;;;;;;;;;;;18.04;48.29;100857.69;5068154;28;1905;-55
2023/09/01 08:19:46;;;;;;;;;;;;;;;17.76;47.96;100859.97;5061816;28;1126;-55
2023/09/01 08:22:11;;;;;;;;;;;;;;;17.76;47.49;100852.50;5062018;28;1127;-55
2023/09/01 08:24:37;;;;;;;;;;;;;;;17.70;47.18;100856.41;5068780;28;1146;-54
2023/09/01 08:27:03;;;;;;;;;;;;;;;17.67;46.88;100856.97;5066212;28;2428;-54
2023/09/01 08:29:30;;;;;;;;;;;;;;;17.69;46.58;100860.25;5062473;28;1068;-54
2023/09/01 08:31:55;;;;;;;;;;;;;;;17.65;46.53;100855.59;5043599;28;1000;-53
2023/09/01 08:34:21;;;;;;;;;;;;;;;17.61;46.46;100858.91;5055873;28;1016;-55
2023/09/01 08:36:46;;;;;;;;;;;;;;;17.58;46.37;100855.88;5055267;28;1913;-52
2023/09/01 08:39:12;;;;;;;;;;;;;;;17.51;46.25;100867.16;5062819;28;992;-51
2023/09/01 08:41:37;;;;;;;;;;;;;;;17.57;46.29;100856.97;5061573;28;1166;-51
2023/09/01 08:44:04;;;;;;;;;;;;;;;17.58;46.06;100855.88;5055391;28;1166;-51
2023/09/01 08:46:30;;;;;;;;;;;;;;;17.57;46.12;100859.72;5055348;28;1059;-52
2023/09/01 08:48:55;;;;;;;;;;;;;;;17.55;45.99;100854.50;5051175;28;1133;-52
2023/09/01 08:51:21;;;;;;;;;;;;;;;17.51;46.17;100855.34;5068547;28;1062;-49
2023/09/01 08:53:47;;;;;;;;;;;;;;;17.60;46.06;100849.00;5075223;28;1130;-52
2023/09/01 08:56:13;;;;;;;;;;;;;;;17.53;46.23;100850.38;5056888;28;1918;-50
2023/09/01 08:58:40;;;;;;;;;;;;;;;17.55;46.18;100846.25;5062081;28;1126;-51
2023/09/01 09:01:05;;;;;;;;;;;;;;;17.47;46.16;100848.75;5044173;28;1107;-52
2023/09/01 09:03:32;;;;;;;;;;;;;;;17.52;45.95;100841.31;5057311;28;903;-53
2023/09/01 09:05:58;;;;;;;;;;;;;;;17.47;46.22;100849.56;5062795;28;1102;-52
2023/09/01 09:08:24;;;;;;;;;;;;;;;17.41;46.22;100854.25;5078334;28;1082;-51
2023/09/01 09:10:49;;;;;;;;;;;;;;;17.58;45.85;100850.38;5077945;28;1063;-52
2023/09/01 09:13:33;;;;;;;;;;;;;;;17.51;46.04;100852.59;5058916;28;1074;-50
2023/09/01 09:16:04;;;;;;;;;;;;;;;17.49;46.04;100852.03;5069644;28;1965;-50
2023/09/01 09:18:30;;;;;;;;;;;;;;;17.55;46.02;100848.19;5075509;28;1166;-50
2023/09/01 09:20:55;;;;;;;;;;;;;;;17.94;46.87;100850.31;5068629;28;1157;-53
2023/09/01 09:23:21;;;;;;;;;;;;;;;17.90;47.86;100843.69;5067709;28;1202;-52
2023/09/01 09:25:49;;;;;;;;;;;;;;;17.89;47.24;100853.88;5062752;28;1194;-54
2023/09/01 09:28:16;;;;;;;;;;;;;;;17.72;47.38;100854.19;5059791;28;2677;-55
2023/09/01 09:30:48;;;;;;;;;;;;;;;17.73;46.94;100842.09;5065035;28;1847;-56
2023/09/01 09:33:14;;;;;;;;;;;;;;;17.73;46.55;100852.28;5075648;28;1968;-57
2023/09/01 09:35:52;;;;;;;;;;;;;;;17.71;46.61;100844.31;5058109;28;1913;-54
2023/09/01 09:38:17;;;;;;;;;;;;;;;17.63;46.57;100839.38;5064799;28;1991;-57
2023/09/01 09:41:09;;;;;;;;;;;;;;;17.61;46.57;100847.91;5065436;28;1844;-56
2023/09/01 09:43:49;;;;;;;;;;;;;;;17.69;46.09;100846.50;5057699;28;1371;-59
2023/09/01 09:46:15;;;;;;;;;;;;;;;17.64;46.26;100832.75;5066038;28;1055;-60
2023/09/01 09:48:41;;;;;;;;;;;;;;;17.67;46.92;100843.22;5062683;28;1135;-62
2023/09/01 09:51:10;;;;;;;;;;;;;;;17.73;46.75;100844.84;5067830;28;1151;-61
2023/09/01 09:53:39;;;;;;;;;;;;;;;17.68;46.79;100833.84;5072106;28;1074;-60
2023/09/01 09:56:19;;;;;;;;;;;;;;;17.74;46.03;100832.75;5057840;28;1977;-60
2023/09/01 09:58:46;;;;;;;;;;;;;;;17.68;46.29;100841.28;5058084;28;1154;-59
2023/09/01 10:01:22;;;;;;;;;;;;;;;17.71;46.15;100847.06;5057639;28;1155;-58
2023/09/01 10:03:48;;;;;;;;;;;;;;;17.65;46.46;100844.59;5067486;28;1065;-56
2023/09/01 10:06:15;;;;;;;;;;;;;;;17.72;46.28;100856.13;5073956;28;1213;-58
2023/09/01 10:08:41;;;;;;;;;;;;;;;17.70;46.02;100852.84;5057413;28;1266;-62
2023/09/01 10:11:07;;;;;;;;;;;;;;;17.66;46.27;100844.31;5070951;28;2220;-60
2023/09/01 10:13:32;;;;;;;;;;;;;;;17.56;46.34;100847.09;5049022;28;1129;-59
2023/09/01 10:15:58;;;;;;;;;;;;;;;17.63;46.33;100847.63;5047022;28;1964;-57
2023/09/01 10:18:23;;;;;;;;;;;;;;;17.61;46.04;100841.56;5048758;28;1047;-57
2023/09/01 10:20:49;;;;;;;;;;;;;;;17.65;46.12;100850.91;5070632;28;1522;-58
2023/09/01 10:23:14;;;;;;;;;;;;;;;17.68;46.23;100850.34;5057188;28;1111;-57
2023/09/01 10:25:40;;;;;;;;;;;;;;;17.59;46.06;100844.59;5070498;28;1044;-60
2023/09/01 10:28:10;;;;;;;;;;;;;;;17.58;46.06;100836.63;5066728;28;1028;-59
2023/09/01 10:30:36;;;;;;;;;;;;;;;17.64;46.30;100851.19;5076769;28;1050;-58
2023/09/01 10:33:09;;;;;;;;;;;;;;;17.65;46.21;100845.41;5066321;28;1105;-59
2023/09/01 10:35:38;;;;;;;;;;;;;;;17.60;46.12;100838.00;5059995;28;1975;-59
2023/09/01 10:38:10;;;;;;;;;;;;;;;17.62;46.23;100840.47;5077515;28;1121;-59
2023/09/01 10:40:46;;;;;;;;;;;;;;;17.65;46.10;100837.16;5070031;28;1173;-60
2023/09/01 10:43:11;;;;;;;;;;;;;;;17.63;45.96;100825.63;5059401;28;2593;-61
2023/09/01 10:45:37;;;;;;;;;;;;;;;17.69;46.09;100843.75;5057041;28;1145;-58
2023/09/01 10:48:04;;;;;;;;;;;;;;;17.67;46.09;100842.38;5069212;28;1111;-59
2023/09/01 10:50:34;;;;;;;;;;;;;;;17.65;46.19;100844.59;5063246;28;1075;-62
2023/09/01 10:53:17;;;;;;;;;;;;;;;17.57;46.35;100845.97;5076177;28;1172;-65
2023/09/01 10:56:03;;;;;;;;;;;;;;;17.56;46.42;100841.59;5056681;28;1911;-62
2023/09/01 10:58:36;;;;;;;;;;;;;;;17.65;46.05;100842.66;5056109;28;1788;-61
2023/09/01 11:01:20;;;;;;;;;;;;;;;17.71;46.13;100851.72;5069119;28;1083;-62
2023/09/01 11:03:46;;;;;;;;;;;;;;;17.71;46.15;100843.47;5059059;28;977;-58
2023/09/01 11:06:11;;;;;;;;;;;;;;;17.66;46.35;100830.56;5074743;28;1202;-61
2023/09/01 11:08:37;;;;;;;;;;;;;;;17.71;46.36;100825.06;5064775;28;1012;-61
2023/09/01 11:11:06;;;;;;;;;;;;;;;17.72;46.14;100837.69;5061082;28;1170;-62
2023/09/01 11:13:32;;;;;;;;;;;;;;;17.66;46.14;100824.25;5065351;28;1011;-59
2023/09/01 11:15:57;;;;;;;;;;;;;;;17.70;46.39;100828.91;5064076;28;1910;-60
2023/09/01 11:18:23;;;;;;;;;;;;;;;17.70;46.20;100831.66;5049421;28;1382;-62
2023/09/01 11:20:55;;;;;;;;;;;;;;;17.73;46.17;100828.34;5069748;28;993;-61
2023/09/01 11:23:24;;;;;;;;;;;;;;;17.70;46.14;100828.91;5065306;28;1028;-59
2023/09/01 11:25:59;;;;;;;;;;;;;;;17.72;45.94;100826.69;5062680;28;1127;-63
2023/09/01 11:28:28;;;;;;;;;;;;;;;17.68;46.15;100828.34;5070810;28;1186;-61
2023/09/01 11:30:54;;;;;;;;;;;;;;;17.66;46.17;100827.81;5070899;28;1157;-61
2023/09/01 11:33:21;;;;;;;;;;;;;;;17.76;45.70;100825.00;5068082;28;1062;-58
2023/09/01 11:35:47;;;;;;;;;;;;;;;17.71;46.04;100821.47;5056597;28;1969;-59
2023/09/01 11:38:19;;;;;;;;;;;;;;;17.72;46.08;100821.19;5056103;28;1114;-58
2023/09/01 11:40:45;;;;;;;;;;;;;;;17.70;46.28;100825.34;5058554;28;1162;-58
2023/09/01 11:43:10;;;;;;;;;;;;;;;17.69;46.36;100826.44;5037985;28;2688;-60
2023/09/01 11:45:44;;;;;;;;;;;;;;;17.75;46.11;100823.38;5051859;28;1076;-59
2023/09/01 11:48:09;;;;;;;;;;;;;;;17.74;46.00;100819.00;5056098;28;1082;-60
2023/09/01 11:50:36;;;;;;;;;;;;;;;17.65;46.36;100809.66;5057380;28;1089;-61
2023/09/01 11:53:02;;;;;;;;;;;;;;;17.68;46.61;100802.78;5074675;28;1007;-60
2023/09/01 11:55:35;;;;;;;;;;;;;;;17.74;46.48;100816.22;5068884;28;1105;-62
2023/09/01 11:58:00;;;;;;;;;;;;;;;17.72;46.41;100810.19;5069292;28;1066;-61
2023/09/01 12:00:29;;;;;;;;;;;;;;;17.77;46.16;100812.91;5055728;28;1043;-59
2023/09/01 12:02:55;;;;;;;;;;;;;;;17.77;46.20;100809.34;5055991;28;1027;-60
2023/09/01 12:05:27;;;;;;;;;;;;;;;17.78;46.38;100805.47;5067383;28;976;-61
2023/09/01 12:07:53;;;;;;;;;;;;;;;17.68;46.29;100809.09;5057824;28;1433;-61
2023/09/01 12:10:21;;;;;;;;;;;;;;;17.79;46.17;100804.38;5067676;28;1011;-61
2023/09/01 12:12:46;;;;;;;;;;;;;;;17.78;46.09;100799.97;5056050;28;2210;-60
2023/09/01 12:15:12;;;;;;;;;;;;;;;17.76;46.25;100792.00;5055354;28;1123;-60
2023/09/01 12:17:37;;;;;;;;;;;;;;;17.72;46.30;100801.94;5069920;28;1979;-61
2023/09/01 12:20:03;;;;;;;;;;;;;;;17.79;46.05;100799.72;5067504;28;1034;-57
2023/09/01 12:22:28;;;;;;;;;;;;;;;17.80;45.91;100795.03;5056189;28;1023;-58
2023/09/01 12:24:54;;;;;;;;;;;;;;;17.78;46.16;100803.56;5068109;28;1076;-59
2023/09/01 12:27:20;;;;;;;;;;;;;;;17.78;46.04;100808.22;5056785;28;1094;-63
2023/09/01 12:29:46;;;;;;;;;;;;;;;17.84;45.86;100798.03;5074720;28;891;-62
2023/09/01 12:32:12;;;;;;;;;;;;;;;17.88;45.90;100807.38;5061266;28;1095;-62
2023/09/01 12:34:37;;;;;;;;;;;;;;;17.89;45.98;100800.75;5055223;28;1099;-61
2023/09/01 12:37:03;;;;;;;;;;;;;;;17.79;46.21;100799.72;5055730;28;1905;-60
2023/09/01 12:39:28;;;;;;;;;;;;;;;17.82;45.95;100800.25;5055278;28;1163;-61
2023/09/01 12:41:54;;;;;;;;;;;;;;;17.84;46.16;100807.13;5072537;28;2291;-61
2023/09/01 12:44:19;;;;;;;;;;;;;;;17.85;45.88;100805.19;5070547;28;983;-61
2023/09/01 12:46:46;;;;;;;;;;;;;;;17.83;46.18;100799.16;5058861;28;1119;-61